sensor_id;sensor_type;location;lat;lon;timestamp;P1;durP1;ratioP1;P2;durP2;ratioP2
80854;SDS011;70272;49.222;-122.892;2023-10-19T00:00:34;2.95;;;1.40;;
80854;SDS011;70272;49.222;-122.892;2023-10-19T00:03:02;1.85;;;1.30;;
80854;SDS011;70272;49.222;-122.892;2023-10-19T00:05:29;1.05;;;0.95;;
80854;SDS011;70272;49.222;-122.892;2023-10-19T00:07:57;1.70;;;1.30;;
80854;SDS011;70272;49.222;-122.892;2023-10-19T00:10:26;2.33;;;1.40;;
80854;SDS011;70272;49.222;-122.892;2023-10-19T00:13:03;1.20;;;1.10;;
80854;SDS011;70272;49.222;-122.892;2023-10-19T00:15:31;3.83;;;2.80;;
80854;SDS011;70272;49.222;-122.892;2023-10-19T00:17:59;2.63;;;1.80;;
80854;SDS011;70272;49.222;-122.892;2023-10-19T00:20:45;1.85;;;1.50;;
80854;SDS011;70272;49.222;-122.892;2023-10-19T00:23:13;1.83;;;1.48;;
80854;SDS011;70272;49.222;-122.892;2023-10-19T00:25:47;2.50;;;1.40;;
80854;SDS011;70272;49.222;-122.892;2023-10-19T00:28:17;1.27;;;1.05;;
80854;SDS011;70272;49.222;-122.892;2023-10-19T00:30:44;1.67;;;1.23;;
80854;SDS011;70272;49.222;-122.892;2023-10-19T00:33:11;1.00;;;1.00;;
80854;SDS011;70272;49.222;-122.892;2023-10-19T00:35:43;1.35;;;1.08;;
80854;SDS011;70272;49.222;-122.892;2023-10-19T00:38:13;2.30;;;1.50;;
80854;SDS011;70272;49.222;-122.892;2023-10-19T00:41:09;1.50;;;1.30;;
80854;SDS011;70272;49.222;-122.892;2023-10-19T00:43:36;3.35;;;1.60;;
80854;SDS011;70272;49.222;-122.892;2023-10-19T00:46:13;3.17;;;1.67;;
80854;SDS011;70272;49.222;-122.892;2023-10-19T00:48:44;4.50;;;1.90;;
80854;SDS011;70272;49.222;-122.892;2023-10-19T00:51:13;2.75;;;1.13;;
80854;SDS011;70272;49.222;-122.892;2023-10-19T00:54:00;3.03;;;1.30;;
80854;SDS011;70272;49.222;-122.892;2023-10-19T00:56:40;2.42;;;1.33;;
80854;SDS011;70272;49.222;-122.892;2023-10-19T00:59:18;1.88;;;1.63;;
80854;SDS011;70272;49.222;-122.892;2023-10-19T01:01:56;1.40;;;1.30;;
80854;SDS011;70272;49.222;-122.892;2023-10-19T01:04:41;1.58;;;1.13;;
80854;SDS011;70272;49.222;-122.892;2023-10-19T01:07:08;1.23;;;1.13;;
80854;SDS011;70272;49.222;-122.892;2023-10-19T01:09:42;1.70;;;1.35;;
80854;SDS011;70272;49.222;-122.892;2023-10-19T01:12:09;1.30;;;1.20;;
80854;SDS011;70272;49.222;-122.892;2023-10-19T01:17:52;3.10;;;1.80;;
80854;SDS011;70272;49.222;-122.892;2023-10-19T01:20:21;2.33;;;1.70;;
80854;SDS011;70272;49.222;-122.892;2023-10-19T01:23:03;1.95;;;1.40;;
80854;SDS011;70272;49.222;-122.892;2023-10-19T01:28:19;1.77;;;1.40;;
80854;SDS011;70272;49.222;-122.892;2023-10-19T01:30:50;2.30;;;1.40;;
80854;SDS011;70272;49.222;-122.892;2023-10-19T01:33:17;1.95;;;1.10;;
80854;SDS011;70272;49.222;-122.892;2023-10-19T01:35:44;1.10;;;1.00;;
80854;SDS011;70272;49.222;-122.892;2023-10-19T01:38:29;1.83;;;1.20;;
80854;SDS011;70272;49.222;-122.892;2023-10-19T01:40:57;1.17;;;1.13;;
80854;SDS011;70272;49.222;-122.892;2023-10-19T01:43:27;2.00;;;1.30;;
80854;SDS011;70272;49.222;-122.892;2023-10-19T01:45:56;1.20;;;1.10;;
80854;SDS011;70272;49.222;-122.892;2023-10-19T01:48:24;3.05;;;1.42;;
80854;SDS011;70272;49.222;-122.892;2023-10-19T01:51:00;2.00;;;1.38;;
80854;SDS011;70272;49.222;-122.892;2023-10-19T01:53:33;1.85;;;1.45;;
80854;SDS011;70272;49.222;-122.892;2023-10-19T01:56:08;2.42;;;1.60;;
80854;SDS011;70272;49.222;-122.892;2023-10-19T01:58:38;2.72;;;1.40;;
80854;SDS011;70272;49.222;-122.892;2023-10-19T02:01:06;2.80;;;1.65;;
80854;SDS011;70272;49.222;-122.892;2023-10-19T02:03:35;2.50;;;1.67;;
80854;SDS011;70272;49.222;-122.892;2023-10-19T02:06:03;1.23;;;1.10;;
80854;SDS011;70272;49.222;-122.892;2023-10-19T02:08:52;3.70;;;1.42;;
80854;SDS011;70272;49.222;-122.892;2023-10-19T02:11:34;1.45;;;1.20;;
80854;SDS011;70272;49.222;-122.892;2023-10-19T02:14:03;2.72;;;1.70;;
80854;SDS011;70272;49.222;-122.892;2023-10-19T02:16:39;4.32;;;1.60;;
80854;SDS011;70272;49.222;-122.892;2023-10-19T02:19:09;2.72;;;1.50;;
80854;SDS011;70272;49.222;-122.892;2023-10-19T02:21:36;2.92;;;1.73;;
80854;SDS011;70272;49.222;-122.892;2023-10-19T02:24:09;2.10;;;1.70;;
80854;SDS011;70272;49.222;-122.892;2023-10-19T02:26:40;3.25;;;1.60;;
80854;SDS011;70272;49.222;-122.892;2023-10-19T02:29:07;2.35;;;1.42;;
80854;SDS011;70272;49.222;-122.892;2023-10-19T02:31:35;1.83;;;1.38;;
80854;SDS011;70272;49.222;-122.892;2023-10-19T02:34:05;1.80;;;1.40;;
80854;SDS011;70272;49.222;-122.892;2023-10-19T02:36:34;1.90;;;1.30;;
80854;SDS011;70272;49.222;-122.892;2023-10-19T02:39:03;1.10;;;1.10;;
80854;SDS011;70272;49.222;-122.892;2023-10-19T02:44:01;2.00;;;1.40;;
80854;SDS011;70272;49.222;-122.892;2023-10-19T02:46:28;1.10;;;1.10;;
80854;SDS011;70272;49.222;-122.892;2023-10-19T02:48:55;0.90;;;0.90;;
80854;SDS011;70272;49.222;-122.892;2023-10-19T02:51:22;1.13;;;1.08;;
80854;SDS011;70272;49.222;-122.892;2023-10-19T02:53:48;2.45;;;1.20;;
80854;SDS011;70272;49.222;-122.892;2023-10-19T02:56:15;1.20;;;1.10;;
80854;SDS011;70272;49.222;-122.892;2023-10-19T02:58:43;2.40;;;1.30;;
80854;SDS011;70272;49.222;-122.892;2023-10-19T03:01:17;2.00;;;1.52;;
80854;SDS011;70272;49.222;-122.892;2023-10-19T03:03:52;2.20;;;1.65;;
80854;SDS011;70272;49.222;-122.892;2023-10-19T03:06:21;2.33;;;1.50;;
80854;SDS011;70272;49.222;-122.892;2023-10-19T03:08:47;3.20;;;1.60;;
80854;SDS011;70272;49.222;-122.892;2023-10-19T03:11:20;2.53;;;1.48;;
80854;SDS011;70272;49.222;-122.892;2023-10-19T03:13:47;1.95;;;1.40;;
80854;SDS011;70272;49.222;-122.892;2023-10-19T03:16:15;1.98;;;1.50;;
80854;SDS011;70272;49.222;-122.892;2023-10-19T03:18:46;1.90;;;1.42;;
80854;SDS011;70272;49.222;-122.892;2023-10-19T03:21:13;2.00;;;1.30;;
80854;SDS011;70272;49.222;-122.892;2023-10-19T03:23:39;1.63;;;1.45;;
80854;SDS011;70272;49.222;-122.892;2023-10-19T03:26:06;1.83;;;1.50;;
80854;SDS011;70272;49.222;-122.892;2023-10-19T03:31:39;2.45;;;1.45;;
80854;SDS011;70272;49.222;-122.892;2023-10-19T03:34:09;3.33;;;1.40;;
80854;SDS011;70272;49.222;-122.892;2023-10-19T03:36:38;2.65;;;1.67;;
80854;SDS011;70272;49.222;-122.892;2023-10-19T03:39:05;1.70;;;1.35;;
80854;SDS011;70272;49.222;-122.892;2023-10-19T03:41:38;2.50;;;1.70;;
80854;SDS011;70272;49.222;-122.892;2023-10-19T03:44:10;2.83;;;1.88;;
80854;SDS011;70272;49.222;-122.892;2023-10-19T03:47:05;3.72;;;1.90;;
80854;SDS011;70272;49.222;-122.892;2023-10-19T03:49:45;2.92;;;1.90;;
80854;SDS011;70272;49.222;-122.892;2023-10-19T03:52:12;4.32;;;2.90;;
80854;SDS011;70272;49.222;-122.892;2023-10-19T03:54:39;4.10;;;2.80;;
80854;SDS011;70272;49.222;-122.892;2023-10-19T03:57:06;5.38;;;3.38;;
80854;SDS011;70272;49.222;-122.892;2023-10-19T03:59:53;4.00;;;2.90;;
80854;SDS011;70272;49.222;-122.892;2023-10-19T04:02:23;3.80;;;2.55;;
80854;SDS011;70272;49.222;-122.892;2023-10-19T04:04:50;6.47;;;4.63;;
80854;SDS011;70272;49.222;-122.892;2023-10-19T04:07:17;6.55;;;5.43;;
80854;SDS011;70272;49.222;-122.892;2023-10-19T04:09:50;5.80;;;4.65;;
80854;SDS011;70272;49.222;-122.892;2023-10-19T04:12:34;5.07;;;3.55;;
80854;SDS011;70272;49.222;-122.892;2023-10-19T04:15:03;5.15;;;3.38;;
80854;SDS011;70272;49.222;-122.892;2023-10-19T04:17:47;3.78;;;2.13;;
80854;SDS011;70272;49.222;-122.892;2023-10-19T04:20:14;4.30;;;2.85;;
80854;SDS011;70272;49.222;-122.892;2023-10-19T04:22:42;4.05;;;2.58;;
80854;SDS011;70272;49.222;-122.892;2023-10-19T04:25:19;4.90;;;2.90;;
80854;SDS011;70272;49.222;-122.892;2023-10-19T04:27:46;3.95;;;2.42;;
80854;SDS011;70272;49.222;-122.892;2023-10-19T04:30:14;3.70;;;2.53;;
80854;SDS011;70272;49.222;-122.892;2023-10-19T04:32:45;3.70;;;2.25;;
80854;SDS011;70272;49.222;-122.892;2023-10-19T04:35:12;3.15;;;2.35;;
80854;SDS011;70272;49.222;-122.892;2023-10-19T04:37:40;4.22;;;2.53;;
80854;SDS011;70272;49.222;-122.892;2023-10-19T04:40:08;3.80;;;2.60;;
80854;SDS011;70272;49.222;-122.892;2023-10-19T04:42:35;4.05;;;2.70;;
80854;SDS011;70272;49.222;-122.892;2023-10-19T04:45:02;3.75;;;2.35;;
80854;SDS011;70272;49.222;-122.892;2023-10-19T04:47:28;3.85;;;2.55;;
80854;SDS011;70272;49.222;-122.892;2023-10-19T04:49:55;3.78;;;2.53;;
80854;SDS011;70272;49.222;-122.892;2023-10-19T04:52:21;3.75;;;2.42;;
80854;SDS011;70272;49.222;-122.892;2023-10-19T04:54:47;3.88;;;2.60;;
80854;SDS011;70272;49.222;-122.892;2023-10-19T04:57:14;3.45;;;2.30;;
80854;SDS011;70272;49.222;-122.892;2023-10-19T04:59:40;3.90;;;2.25;;
80854;SDS011;70272;49.222;-122.892;2023-10-19T05:02:10;3.63;;;2.40;;
80854;SDS011;70272;49.222;-122.892;2023-10-19T05:04:37;2.97;;;1.88;;
80854;SDS011;70272;49.222;-122.892;2023-10-19T05:07:03;2.47;;;1.85;;
80854;SDS011;70272;49.222;-122.892;2023-10-19T05:09:29;2.60;;;1.75;;
80854;SDS011;70272;49.222;-122.892;2023-10-19T05:11:57;3.97;;;1.90;;
80854;SDS011;70272;49.222;-122.892;2023-10-19T05:14:23;3.67;;;2.28;;
80854;SDS011;70272;49.222;-122.892;2023-10-19T05:16:50;3.40;;;1.90;;
80854;SDS011;70272;49.222;-122.892;2023-10-19T05:19:16;3.83;;;2.08;;
80854;SDS011;70272;49.222;-122.892;2023-10-19T05:21:42;3.42;;;2.10;;
80854;SDS011;70272;49.222;-122.892;2023-10-19T05:24:09;3.70;;;1.92;;
80854;SDS011;70272;49.222;-122.892;2023-10-19T05:26:35;2.65;;;1.73;;
80854;SDS011;70272;49.222;-122.892;2023-10-19T05:29:01;3.13;;;2.10;;
80854;SDS011;70272;49.222;-122.892;2023-10-19T05:31:27;2.65;;;1.70;;
80854;SDS011;70272;49.222;-122.892;2023-10-19T05:33:56;3.65;;;2.00;;
80854;SDS011;70272;49.222;-122.892;2023-10-19T05:36:22;2.50;;;1.70;;
80854;SDS011;70272;49.222;-122.892;2023-10-19T05:38:50;2.88;;;1.90;;
80854;SDS011;70272;49.222;-122.892;2023-10-19T05:41:17;3.20;;;1.90;;
80854;SDS011;70272;49.222;-122.892;2023-10-19T05:43:46;2.10;;;1.70;;
80854;SDS011;70272;49.222;-122.892;2023-10-19T05:46:12;4.18;;;2.25;;
80854;SDS011;70272;49.222;-122.892;2023-10-19T05:48:42;2.80;;;1.90;;
80854;SDS011;70272;49.222;-122.892;2023-10-19T05:51:08;3.63;;;1.80;;
80854;SDS011;70272;49.222;-122.892;2023-10-19T05:53:35;3.00;;;1.95;;
80854;SDS011;70272;49.222;-122.892;2023-10-19T05:56:02;2.97;;;1.95;;
80854;SDS011;70272;49.222;-122.892;2023-10-19T05:58:29;2.63;;;1.70;;
80854;SDS011;70272;49.222;-122.892;2023-10-19T06:00:57;3.08;;;1.52;;
80854;SDS011;70272;49.222;-122.892;2023-10-19T06:03:24;2.47;;;1.85;;
80854;SDS011;70272;49.222;-122.892;2023-10-19T06:05:50;3.15;;;1.80;;
80854;SDS011;70272;49.222;-122.892;2023-10-19T06:08:21;2.95;;;1.70;;
80854;SDS011;70272;49.222;-122.892;2023-10-19T06:10:51;2.42;;;1.73;;
80854;SDS011;70272;49.222;-122.892;2023-10-19T06:13:18;2.65;;;1.40;;
80854;SDS011;70272;49.222;-122.892;2023-10-19T06:15:45;1.27;;;1.17;;
80854;SDS011;70272;49.222;-122.892;2023-10-19T06:18:11;1.90;;;1.40;;
80854;SDS011;70272;49.222;-122.892;2023-10-19T06:20:42;2.10;;;1.42;;
80854;SDS011;70272;49.222;-122.892;2023-10-19T06:23:12;1.75;;;1.40;;
80854;SDS011;70272;49.222;-122.892;2023-10-19T06:25:38;1.75;;;1.30;;
80854;SDS011;70272;49.222;-122.892;2023-10-19T06:28:05;2.20;;;1.45;;
80854;SDS011;70272;49.222;-122.892;2023-10-19T06:30:32;1.52;;;1.30;;
80854;SDS011;70272;49.222;-122.892;2023-10-19T06:32:59;1.50;;;1.27;;
80854;SDS011;70272;49.222;-122.892;2023-10-19T06:35:26;2.88;;;1.40;;
80854;SDS011;70272;49.222;-122.892;2023-10-19T06:37:54;2.03;;;1.30;;
80854;SDS011;70272;49.222;-122.892;2023-10-19T06:40:21;1.30;;;1.20;;
80854;SDS011;70272;49.222;-122.892;2023-10-19T06:42:47;2.67;;;1.50;;
80854;SDS011;70272;49.222;-122.892;2023-10-19T06:45:15;1.52;;;1.30;;
80854;SDS011;70272;49.222;-122.892;2023-10-19T06:47:43;2.05;;;1.50;;
80854;SDS011;70272;49.222;-122.892;2023-10-19T06:50:10;2.38;;;1.40;;
80854;SDS011;70272;49.222;-122.892;2023-10-19T06:52:38;1.52;;;1.20;;
80854;SDS011;70272;49.222;-122.892;2023-10-19T06:55:06;1.38;;;1.17;;
80854;SDS011;70272;49.222;-122.892;2023-10-19T06:57:39;1.30;;;1.20;;
80854;SDS011;70272;49.222;-122.892;2023-10-19T07:00:11;1.60;;;1.27;;
80854;SDS011;70272;49.222;-122.892;2023-10-19T07:02:45;1.67;;;1.40;;
80854;SDS011;70272;49.222;-122.892;2023-10-19T07:05:12;1.50;;;1.30;;
80854;SDS011;70272;49.222;-122.892;2023-10-19T07:07:43;1.70;;;1.20;;
80854;SDS011;70272;49.222;-122.892;2023-10-19T07:10:11;1.40;;;1.13;;
80854;SDS011;70272;49.222;-122.892;2023-10-19T07:12:39;1.50;;;1.40;;
80854;SDS011;70272;49.222;-122.892;2023-10-19T07:15:09;1.40;;;1.30;;
80854;SDS011;70272;49.222;-122.892;2023-10-19T07:17:42;1.77;;;1.40;;
80854;SDS011;70272;49.222;-122.892;2023-10-19T07:20:10;1.45;;;1.30;;
80854;SDS011;70272;49.222;-122.892;2023-10-19T07:23:01;2.80;;;1.63;;
80854;SDS011;70272;49.222;-122.892;2023-10-19T07:26:00;1.25;;;1.15;;
80854;SDS011;70272;49.222;-122.892;2023-10-19T07:28:27;1.58;;;1.30;;
80854;SDS011;70272;49.222;-122.892;2023-10-19T07:30:53;1.48;;;1.05;;
80854;SDS011;70272;49.222;-122.892;2023-10-19T07:33:19;1.60;;;1.30;;
80854;SDS011;70272;49.222;-122.892;2023-10-19T07:35:46;2.17;;;1.30;;
80854;SDS011;70272;49.222;-122.892;2023-10-19T07:38:17;2.60;;;0.90;;
80854;SDS011;70272;49.222;-122.892;2023-10-19T07:40:47;1.75;;;1.27;;
80854;SDS011;70272;49.222;-122.892;2023-10-19T07:43:13;2.75;;;1.27;;
80854;SDS011;70272;49.222;-122.892;2023-10-19T07:45:40;1.75;;;1.20;;
80854;SDS011;70272;49.222;-122.892;2023-10-19T07:48:08;1.13;;;0.90;;
80854;SDS011;70272;49.222;-122.892;2023-10-19T07:50:38;1.20;;;1.08;;
80854;SDS011;70272;49.222;-122.892;2023-10-19T07:53:08;1.58;;;1.13;;
80854;SDS011;70272;49.222;-122.892;2023-10-19T07:55:35;1.38;;;1.10;;
80854;SDS011;70272;49.222;-122.892;2023-10-19T07:58:01;2.13;;;1.30;;
80854;SDS011;70272;49.222;-122.892;2023-10-19T08:00:28;1.20;;;1.20;;
80854;SDS011;70272;49.222;-122.892;2023-10-19T08:02:55;2.63;;;1.20;;
80854;SDS011;70272;49.222;-122.892;2023-10-19T08:05:21;1.30;;;1.20;;
80854;SDS011;70272;49.222;-122.892;2023-10-19T08:07:48;0.98;;;0.80;;
80854;SDS011;70272;49.222;-122.892;2023-10-19T08:10:15;1.52;;;1.10;;
80854;SDS011;70272;49.222;-122.892;2023-10-19T08:12:43;1.25;;;1.10;;
80854;SDS011;70272;49.222;-122.892;2023-10-19T08:15:12;3.35;;;1.00;;
80854;SDS011;70272;49.222;-122.892;2023-10-19T08:17:47;2.08;;;1.15;;
80854;SDS011;70272;49.222;-122.892;2023-10-19T08:20:15;0.85;;;0.85;;
80854;SDS011;70272;49.222;-122.892;2023-10-19T08:22:43;1.55;;;1.15;;
80854;SDS011;70272;49.222;-122.892;2023-10-19T08:25:12;1.33;;;1.23;;
80854;SDS011;70272;49.222;-122.892;2023-10-19T08:27:43;1.17;;;1.10;;
80854;SDS011;70272;49.222;-122.892;2023-10-19T08:30:11;1.25;;;1.13;;
80854;SDS011;70272;49.222;-122.892;2023-10-19T08:32:43;1.20;;;1.10;;
80854;SDS011;70272;49.222;-122.892;2023-10-19T08:35:13;1.45;;;1.10;;
80854;SDS011;70272;49.222;-122.892;2023-10-19T08:37:43;1.55;;;1.23;;
80854;SDS011;70272;49.222;-122.892;2023-10-19T08:40:11;1.15;;;1.05;;
80854;SDS011;70272;49.222;-122.892;2023-10-19T08:42:42;1.35;;;1.00;;
80854;SDS011;70272;49.222;-122.892;2023-10-19T08:45:10;2.70;;;1.30;;
80854;SDS011;70272;49.222;-122.892;2023-10-19T08:47:59;1.50;;;1.17;;
80854;SDS011;70272;49.222;-122.892;2023-10-19T08:50:33;1.20;;;1.10;;
80854;SDS011;70272;49.222;-122.892;2023-10-19T08:53:01;1.42;;;1.20;;
80854;SDS011;70272;49.222;-122.892;2023-10-19T08:55:28;1.20;;;1.10;;
80854;SDS011;70272;49.222;-122.892;2023-10-19T08:57:59;1.30;;;1.20;;
80854;SDS011;70272;49.222;-122.892;2023-10-19T09:00:26;1.73;;;1.10;;
80854;SDS011;70272;49.222;-122.892;2023-10-19T09:02:53;1.20;;;1.10;;
80854;SDS011;70272;49.222;-122.892;2023-10-19T09:05:21;1.20;;;1.10;;
80854;SDS011;70272;49.222;-122.892;2023-10-19T09:07:49;1.67;;;1.30;;
80854;SDS011;70272;49.222;-122.892;2023-10-19T09:10:22;1.25;;;1.10;;
80854;SDS011;70272;49.222;-122.892;2023-10-19T09:13:06;1.17;;;0.93;;
80854;SDS011;70272;49.222;-122.892;2023-10-19T09:15:38;1.88;;;1.30;;
80854;SDS011;70272;49.222;-122.892;2023-10-19T09:18:16;2.35;;;1.30;;
80854;SDS011;70272;49.222;-122.892;2023-10-19T09:20:45;1.42;;;1.20;;
80854;SDS011;70272;49.222;-122.892;2023-10-19T09:23:22;1.70;;;1.20;;
80854;SDS011;70272;49.222;-122.892;2023-10-19T09:25:49;1.65;;;1.13;;
80854;SDS011;70272;49.222;-122.892;2023-10-19T09:28:18;2.17;;;1.45;;
80854;SDS011;70272;49.222;-122.892;2023-10-19T09:30:45;1.70;;;1.17;;
80854;SDS011;70272;49.222;-122.892;2023-10-19T09:33:13;1.58;;;1.30;;
80854;SDS011;70272;49.222;-122.892;2023-10-19T09:35:39;2.08;;;1.48;;
80854;SDS011;70272;49.222;-122.892;2023-10-19T09:38:09;1.45;;;1.20;;
80854;SDS011;70272;49.222;-122.892;2023-10-19T09:40:35;1.90;;;1.20;;
80854;SDS011;70272;49.222;-122.892;2023-10-19T09:43:04;1.50;;;1.30;;
80854;SDS011;70272;49.222;-122.892;2023-10-19T09:45:35;1.67;;;1.33;;
80854;SDS011;70272;49.222;-122.892;2023-10-19T09:48:04;2.40;;;1.50;;
80854;SDS011;70272;49.222;-122.892;2023-10-19T09:50:31;2.40;;;1.40;;
80854;SDS011;70272;49.222;-122.892;2023-10-19T09:52:58;2.08;;;1.30;;
80854;SDS011;70272;49.222;-122.892;2023-10-19T09:55:27;1.55;;;1.20;;
80854;SDS011;70272;49.222;-122.892;2023-10-19T09:58:17;1.50;;;1.30;;
80854;SDS011;70272;49.222;-122.892;2023-10-19T10:00:47;5.72;;;1.88;;
80854;SDS011;70272;49.222;-122.892;2023-10-19T10:06:12;3.00;;;1.60;;
80854;SDS011;70272;49.222;-122.892;2023-10-19T10:08:43;2.20;;;1.58;;
80854;SDS011;70272;49.222;-122.892;2023-10-19T10:11:26;2.70;;;1.58;;
80854;SDS011;70272;49.222;-122.892;2023-10-19T10:13:54;2.40;;;1.42;;
80854;SDS011;70272;49.222;-122.892;2023-10-19T10:16:25;2.80;;;1.73;;
80854;SDS011;70272;49.222;-122.892;2023-10-19T10:18:59;2.45;;;1.60;;
80854;SDS011;70272;49.222;-122.892;2023-10-19T10:21:26;3.08;;;1.85;;
80854;SDS011;70272;49.222;-122.892;2023-10-19T10:23:55;2.88;;;1.83;;
80854;SDS011;70272;49.222;-122.892;2023-10-19T10:26:26;2.03;;;1.60;;
80854;SDS011;70272;49.222;-122.892;2023-10-19T10:29:11;3.35;;;1.42;;
80854;SDS011;70272;49.222;-122.892;2023-10-19T10:31:46;3.40;;;1.77;;
80854;SDS011;70272;49.222;-122.892;2023-10-19T10:37:08;1.67;;;1.50;;
80854;SDS011;70272;49.222;-122.892;2023-10-19T10:39:37;1.83;;;1.40;;
80854;SDS011;70272;49.222;-122.892;2023-10-19T10:42:06;2.42;;;1.55;;
80854;SDS011;70272;49.222;-122.892;2023-10-19T10:44:47;2.30;;;1.45;;
80854;SDS011;70272;49.222;-122.892;2023-10-19T10:47:20;1.98;;;1.48;;
80854;SDS011;70272;49.222;-122.892;2023-10-19T10:52:24;2.40;;;1.70;;
80854;SDS011;70272;49.222;-122.892;2023-10-19T10:55:07;2.53;;;1.80;;
80854;SDS011;70272;49.222;-122.892;2023-10-19T10:57:37;2.33;;;1.50;;
80854;SDS011;70272;49.222;-122.892;2023-10-19T11:00:05;2.70;;;1.88;;
80854;SDS011;70272;49.222;-122.892;2023-10-19T11:02:36;2.45;;;1.70;;
80854;SDS011;70272;49.222;-122.892;2023-10-19T11:05:08;3.22;;;1.60;;
80854;SDS011;70272;49.222;-122.892;2023-10-19T11:07:40;2.75;;;1.83;;
80854;SDS011;70272;49.222;-122.892;2023-10-19T11:10:06;2.85;;;1.98;;
80854;SDS011;70272;49.222;-122.892;2023-10-19T11:12:35;3.58;;;1.70;;
80854;SDS011;70272;49.222;-122.892;2023-10-19T11:15:03;2.65;;;2.00;;
80854;SDS011;70272;49.222;-122.892;2023-10-19T11:17:41;3.67;;;1.95;;
80854;SDS011;70272;49.222;-122.892;2023-10-19T11:20:09;3.53;;;2.30;;
80854;SDS011;70272;49.222;-122.892;2023-10-19T11:22:47;3.03;;;2.03;;
80854;SDS011;70272;49.222;-122.892;2023-10-19T11:25:19;2.97;;;2.00;;
80854;SDS011;70272;49.222;-122.892;2023-10-19T11:27:46;3.85;;;2.28;;
80854;SDS011;70272;49.222;-122.892;2023-10-19T11:30:13;2.97;;;2.15;;
80854;SDS011;70272;49.222;-122.892;2023-10-19T11:32:39;5.15;;;2.40;;
80854;SDS011;70272;49.222;-122.892;2023-10-19T11:35:06;2.75;;;2.10;;
80854;SDS011;70272;49.222;-122.892;2023-10-19T11:37:48;2.92;;;2.03;;
80854;SDS011;70272;49.222;-122.892;2023-10-19T11:40:15;3.28;;;2.28;;
80854;SDS011;70272;49.222;-122.892;2023-10-19T11:42:42;2.75;;;2.08;;
80854;SDS011;70272;49.222;-122.892;2023-10-19T11:45:09;3.58;;;2.30;;
80854;SDS011;70272;49.222;-122.892;2023-10-19T11:47:37;3.85;;;2.25;;
80854;SDS011;70272;49.222;-122.892;2023-10-19T11:50:03;4.18;;;2.42;;
80854;SDS011;70272;49.222;-122.892;2023-10-19T11:52:30;5.22;;;2.63;;
80854;SDS011;70272;49.222;-122.892;2023-10-19T11:54:57;3.70;;;2.20;;
80854;SDS011;70272;49.222;-122.892;2023-10-19T11:57:23;3.63;;;2.25;;
80854;SDS011;70272;49.222;-122.892;2023-10-19T11:59:50;3.78;;;2.30;;
80854;SDS011;70272;49.222;-122.892;2023-10-19T12:02:19;3.80;;;2.17;;
80854;SDS011;70272;49.222;-122.892;2023-10-19T12:04:46;3.70;;;2.58;;
80854;SDS011;70272;49.222;-122.892;2023-10-19T12:07:12;3.80;;;2.20;;
80854;SDS011;70272;49.222;-122.892;2023-10-19T12:09:39;3.42;;;2.47;;
80854;SDS011;70272;49.222;-122.892;2023-10-19T12:12:10;7.75;;;3.63;;
80854;SDS011;70272;49.222;-122.892;2023-10-19T12:14:36;4.68;;;2.38;;
80854;SDS011;70272;49.222;-122.892;2023-10-19T12:17:03;5.13;;;2.35;;
80854;SDS011;70272;49.222;-122.892;2023-10-19T12:19:30;5.18;;;2.25;;
80854;SDS011;70272;49.222;-122.892;2023-10-19T12:21:56;3.15;;;2.42;;
80854;SDS011;70272;49.222;-122.892;2023-10-19T12:24:23;4.63;;;3.08;;
80854;SDS011;70272;49.222;-122.892;2023-10-19T12:26:53;4.25;;;2.60;;
80854;SDS011;70272;49.222;-122.892;2023-10-19T12:29:19;4.88;;;2.42;;
80854;SDS011;70272;49.222;-122.892;2023-10-19T12:31:49;5.03;;;2.15;;
80854;SDS011;70272;49.222;-122.892;2023-10-19T12:34:16;3.03;;;2.10;;
80854;SDS011;70272;49.222;-122.892;2023-10-19T12:36:42;3.85;;;2.08;;
80854;SDS011;70272;49.222;-122.892;2023-10-19T12:39:11;3.75;;;3.28;;
80854;SDS011;70272;49.222;-122.892;2023-10-19T12:41:58;2.85;;;2.00;;
80854;SDS011;70272;49.222;-122.892;2023-10-19T12:44:24;3.05;;;1.98;;
80854;SDS011;70272;49.222;-122.892;2023-10-19T12:46:54;3.33;;;1.77;;
80854;SDS011;70272;49.222;-122.892;2023-10-19T12:49:21;2.35;;;1.52;;
80854;SDS011;70272;49.222;-122.892;2023-10-19T12:51:51;2.95;;;1.58;;
80854;SDS011;70272;49.222;-122.892;2023-10-19T12:54:18;4.55;;;2.35;;
80854;SDS011;70272;49.222;-122.892;2023-10-19T12:56:44;3.67;;;2.05;;
80854;SDS011;70272;49.222;-122.892;2023-10-19T12:59:14;3.50;;;1.80;;
80854;SDS011;70272;49.222;-122.892;2023-10-19T13:01:43;3.63;;;1.90;;
80854;SDS011;70272;49.222;-122.892;2023-10-19T13:04:14;3.45;;;1.90;;
80854;SDS011;70272;49.222;-122.892;2023-10-19T13:06:43;3.70;;;2.13;;
80854;SDS011;70272;49.222;-122.892;2023-10-19T13:09:12;3.13;;;2.08;;
80854;SDS011;70272;49.222;-122.892;2023-10-19T13:11:41;5.95;;;2.50;;
80854;SDS011;70272;49.222;-122.892;2023-10-19T13:14:10;3.67;;;2.50;;
80854;SDS011;70272;49.222;-122.892;2023-10-19T13:16:37;3.05;;;1.98;;
80854;SDS011;70272;49.222;-122.892;2023-10-19T13:19:04;6.53;;;2.35;;
80854;SDS011;70272;49.222;-122.892;2023-10-19T13:21:41;3.35;;;2.15;;
80854;SDS011;70272;49.222;-122.892;2023-10-19T13:24:10;3.15;;;2.17;;
80854;SDS011;70272;49.222;-122.892;2023-10-19T13:26:36;4.55;;;2.55;;
80854;SDS011;70272;49.222;-122.892;2023-10-19T13:29:05;4.85;;;2.80;;
80854;SDS011;70272;49.222;-122.892;2023-10-19T13:31:31;4.53;;;3.65;;
80854;SDS011;70272;49.222;-122.892;2023-10-19T13:33:57;6.93;;;3.42;;
80854;SDS011;70272;49.222;-122.892;2023-10-19T13:36:25;3.97;;;3.00;;
80854;SDS011;70272;49.222;-122.892;2023-10-19T13:38:51;3.45;;;2.22;;
80854;SDS011;70272;49.222;-122.892;2023-10-19T13:41:17;4.63;;;2.65;;
80854;SDS011;70272;49.222;-122.892;2023-10-19T13:43:43;4.70;;;3.10;;
80854;SDS011;70272;49.222;-122.892;2023-10-19T13:46:10;3.35;;;2.03;;
80854;SDS011;70272;49.222;-122.892;2023-10-19T13:48:36;4.10;;;2.75;;
80854;SDS011;70272;49.222;-122.892;2023-10-19T13:51:04;5.20;;;2.50;;
80854;SDS011;70272;49.222;-122.892;2023-10-19T13:53:40;4.68;;;2.67;;
80854;SDS011;70272;49.222;-122.892;2023-10-19T13:56:10;9.40;;;8.45;;
80854;SDS011;70272;49.222;-122.892;2023-10-19T13:58:37;5.35;;;3.22;;
80854;SDS011;70272;49.222;-122.892;2023-10-19T14:01:10;8.90;;;8.20;;
80854;SDS011;70272;49.222;-122.892;2023-10-19T14:03:37;6.93;;;6.30;;
80854;SDS011;70272;49.222;-122.892;2023-10-19T14:06:03;4.63;;;4.18;;
80854;SDS011;70272;49.222;-122.892;2023-10-19T14:08:30;4.65;;;3.33;;
80854;SDS011;70272;49.222;-122.892;2023-10-19T14:11:01;4.35;;;2.65;;
80854;SDS011;70272;49.222;-122.892;2023-10-19T14:13:28;9.70;;;8.85;;
80854;SDS011;70272;49.222;-122.892;2023-10-19T14:15:54;5.20;;;4.70;;
80854;SDS011;70272;49.222;-122.892;2023-10-19T14:18:21;10.82;;;9.95;;
80854;SDS011;70272;49.222;-122.892;2023-10-19T14:20:47;4.63;;;3.85;;
80854;SDS011;70272;49.222;-122.892;2023-10-19T14:23:14;4.63;;;4.20;;
80854;SDS011;70272;49.222;-122.892;2023-10-19T14:25:40;4.90;;;4.50;;
80854;SDS011;70272;49.222;-122.892;2023-10-19T14:28:08;4.50;;;3.40;;
80854;SDS011;70272;49.222;-122.892;2023-10-19T14:30:35;6.35;;;5.75;;
80854;SDS011;70272;49.222;-122.892;2023-10-19T14:33:01;7.60;;;6.10;;
80854;SDS011;70272;49.222;-122.892;2023-10-19T14:35:28;4.97;;;3.75;;
80854;SDS011;70272;49.222;-122.892;2023-10-19T14:37:55;6.82;;;6.22;;
80854;SDS011;70272;49.222;-122.892;2023-10-19T14:40:25;6.68;;;3.88;;
80854;SDS011;70272;49.222;-122.892;2023-10-19T14:42:53;5.35;;;2.90;;